createdAt,value
2023-09-21T00:01:13.139Z,1.95
2023-09-21T00:03:41.038Z,2.05
2023-09-21T00:06:08.417Z,1.80
2023-09-21T00:08:35.313Z,1.80
2023-09-21T00:11:08.230Z,1.80
2023-09-21T00:13:34.946Z,1.90
2023-09-21T00:16:02.764Z,2.10
2023-09-21T00:18:30.771Z,2.20
2023-09-21T00:21:01.640Z,2.20
2023-09-21T00:23:28.649Z,2.15
2023-09-21T00:26:02.155Z,2.00
2023-09-21T00:28:30.063Z,2.00
2023-09-21T00:31:00.707Z,2.35
2023-09-21T00:33:28.790Z,2.15
2023-09-21T00:35:56.470Z,2.20
2023-09-21T00:38:25.496Z,2.45
2023-09-21T00:40:57.819Z,2.13
2023-09-21T00:43:26.153Z,2.13
2023-09-21T00:45:58.757Z,2.65
2023-09-21T00:48:35.265Z,1.70
2023-09-21T00:51:07.625Z,2.55
2023-09-21T00:53:35.476Z,2.20
2023-09-21T00:56:12.828Z,2.13
2023-09-21T00:58:49.444Z,2.20
2023-09-21T01:01:17.851Z,2.20
2023-09-21T01:03:45.324Z,1.90
2023-09-21T01:06:12.636Z,2.20
2023-09-21T01:08:39.578Z,2.17
2023-09-21T01:11:11.185Z,2.03
2023-09-21T01:13:38.779Z,2.65
2023-09-21T01:16:07.134Z,1.85
2023-09-21T01:18:34.627Z,1.80
2023-09-21T01:21:05.462Z,2.40
2023-09-21T01:23:36.546Z,2.30
2023-09-21T01:26:03.934Z,2.10
2023-09-21T01:28:30.756Z,2.00
2023-09-21T01:31:02.060Z,1.67
2023-09-21T01:33:29.050Z,1.73
2023-09-21T01:35:56.216Z,2.13
2023-09-21T01:38:28.353Z,1.80
2023-09-21T01:40:55.182Z,2.00
2023-09-21T01:43:22.509Z,2.33
2023-09-21T01:45:50.952Z,2.15
2023-09-21T01:48:20.306Z,2.00
2023-09-21T01:50:48.883Z,1.83
2023-09-21T01:53:20.737Z,2.00
2023-09-21T01:55:48.950Z,2.10
2023-09-21T01:58:17.199Z,1.85
2023-09-21T02:00:47.841Z,2.10
2023-09-21T02:03:34.079Z,1.92
2023-09-21T02:06:02.584Z,2.15
2023-09-21T02:08:29.518Z,2.03
2023-09-21T02:10:56.502Z,1.95
2023-09-21T02:13:23.291Z,1.80
2023-09-21T02:15:53.741Z,2.00
2023-09-21T02:18:21.587Z,1.98
2023-09-21T02:20:56.109Z,2.00
2023-09-21T02:23:24.750Z,2.17
2023-09-21T02:25:54.351Z,1.77
2023-09-21T02:28:23.781Z,1.75
2023-09-21T02:30:50.553Z,2.10
2023-09-21T02:33:18.066Z,1.90
2023-09-21T02:35:47.748Z,1.95
2023-09-21T02:38:15.108Z,2.40
2023-09-21T02:40:46.410Z,2.10
2023-09-21T02:43:14.104Z,2.15
2023-09-21T02:45:40.921Z,1.80
2023-09-21T02:48:09.244Z,1.95
2023-09-21T02:50:36.306Z,1.73
2023-09-21T02:53:05.314Z,2.08
2023-09-21T02:55:32.200Z,2.03
2023-09-21T02:58:01.669Z,2.38
2023-09-21T03:00:30.294Z,1.80
2023-09-21T03:02:58.317Z,1.70
2023-09-21T03:05:28.750Z,2.45
2023-09-21T03:07:56.494Z,2.08
2023-09-21T03:10:24.718Z,2.17
2023-09-21T03:12:52.286Z,2.20
2023-09-21T03:15:23.508Z,1.98
2023-09-21T03:17:56.642Z,2.10
2023-09-21T03:20:35.928Z,1.98
2023-09-21T03:23:06.737Z,2.00
2023-09-21T03:25:34.447Z,2.13
2023-09-21T03:28:11.771Z,2.00
2023-09-21T03:30:41.753Z,2.15
2023-09-21T03:33:09.172Z,1.90
2023-09-21T03:35:36.118Z,2.00
2023-09-21T03:38:02.909Z,2.53
2023-09-21T03:40:31.526Z,1.98
2023-09-21T03:42:58.414Z,1.97
2023-09-21T03:45:26.593Z,2.05
2023-09-21T03:47:57.000Z,2.30
2023-09-21T03:50:26.690Z,1.83
2023-09-21T03:55:21.921Z,2.30
2023-09-21T03:57:48.999Z,2.00
2023-09-21T04:00:39.400Z,2.10
2023-09-21T04:03:10.166Z,2.33
2023-09-21T04:05:38.746Z,2.22
2023-09-21T04:08:06.224Z,2.33
2023-09-21T04:10:33.667Z,1.80
2023-09-21T04:13:00.814Z,1.75
2023-09-21T04:15:29.957Z,2.60
2023-09-21T04:17:58.794Z,1.98
2023-09-21T04:20:26.311Z,2.08
2023-09-21T04:22:54.994Z,2.05
2023-09-21T04:25:22.109Z,1.98
2023-09-21T04:27:50.939Z,1.85
2023-09-21T04:30:22.873Z,1.73
2023-09-21T04:32:50.728Z,2.28
2023-09-21T04:35:19.832Z,1.80
2023-09-21T04:37:48.378Z,1.83
2023-09-21T04:40:16.018Z,2.22
2023-09-21T04:42:47.286Z,2.00
2023-09-21T04:45:17.419Z,1.90
2023-09-21T04:47:46.879Z,1.80
2023-09-21T04:50:15.232Z,2.25
2023-09-21T04:52:44.569Z,2.00
2023-09-21T04:55:11.765Z,2.15
2023-09-21T04:57:38.729Z,2.13
2023-09-21T05:00:13.177Z,2.00
2023-09-21T05:02:40.206Z,1.83
2023-09-21T05:05:07.509Z,2.20
2023-09-21T05:07:37.275Z,1.95
2023-09-21T05:10:08.059Z,2.03
2023-09-21T05:12:35.486Z,2.10
2023-09-21T05:15:05.823Z,2.60
2023-09-21T05:17:33.290Z,1.77
2023-09-21T05:20:00.147Z,2.30
2023-09-21T05:22:26.813Z,1.80
2023-09-21T05:24:53.475Z,2.00
2023-09-21T05:27:20.517Z,2.10
2023-09-21T05:29:47.524Z,2.30
2023-09-21T05:32:14.482Z,2.30
2023-09-21T05:34:41.289Z,2.28
2023-09-21T05:37:08.317Z,2.00
2023-09-21T05:39:34.978Z,2.00
2023-09-21T05:42:01.773Z,1.75
2023-09-21T05:44:29.422Z,2.10
2023-09-21T05:46:56.157Z,2.05
2023-09-21T05:49:25.671Z,2.20
2023-09-21T05:54:25.170Z,2.05
2023-09-21T05:56:56.219Z,1.88
2023-09-21T05:59:24.480Z,1.83
2023-09-21T06:01:52.080Z,2.17
2023-09-21T06:04:22.401Z,1.92
2023-09-21T06:06:49.720Z,2.08
2023-09-21T06:09:20.451Z,2.20
2023-09-21T06:11:51.217Z,1.67
2023-09-21T06:14:18.899Z,2.15
2023-09-21T06:16:46.332Z,2.00
2023-09-21T06:19:15.678Z,2.10
2023-09-21T06:21:43.883Z,2.13
2023-09-21T06:24:11.287Z,1.95
2023-09-21T06:26:38.421Z,2.20
2023-09-21T06:29:05.700Z,2.05
2023-09-21T06:31:33.693Z,2.03
2023-09-21T06:34:00.805Z,1.67
2023-09-21T06:36:31.645Z,2.00
2023-09-21T06:38:58.952Z,2.17
2023-09-21T06:41:26.489Z,1.95
2023-09-21T06:43:53.286Z,2.42
2023-09-21T06:46:20.874Z,2.17
2023-09-21T06:48:47.911Z,2.15
2023-09-21T06:51:14.854Z,2.20
2023-09-21T06:53:42.084Z,2.70
2023-09-21T06:56:08.770Z,1.60
2023-09-21T06:58:36.529Z,2.13
2023-09-21T07:01:05.577Z,2.42
2023-09-21T07:03:33.768Z,1.80
2023-09-21T07:06:00.808Z,2.08
2023-09-21T07:08:27.621Z,2.13
2023-09-21T07:10:54.854Z,2.00
2023-09-21T07:13:21.850Z,1.67
2023-09-21T07:15:53.350Z,1.95
2023-09-21T07:18:21.797Z,2.13
2023-09-21T07:20:49.201Z,1.70
2023-09-21T07:23:16.259Z,1.75
2023-09-21T07:25:43.052Z,2.05
2023-09-21T07:28:09.797Z,1.88
2023-09-21T07:30:37.274Z,1.80
2023-09-21T07:33:05.888Z,2.00
2023-09-21T07:35:32.936Z,2.00
2023-09-21T07:38:02.051Z,1.80
2023-09-21T07:42:57.716Z,1.80
2023-09-21T07:45:25.852Z,2.20
2023-09-21T07:47:55.878Z,2.15
2023-09-21T07:50:24.397Z,1.90
2023-09-21T07:52:54.324Z,1.90
2023-09-21T07:55:21.250Z,1.92
2023-09-21T07:57:50.150Z,2.50
2023-09-21T08:00:17.363Z,2.08
2023-09-21T08:02:44.270Z,1.77
2023-09-21T08:05:11.550Z,1.58
2023-09-21T08:07:38.717Z,1.90
2023-09-21T08:10:06.025Z,2.20
2023-09-21T08:12:33.063Z,2.30
2023-09-21T08:15:02.299Z,2.00
2023-09-21T08:17:32.846Z,1.95
2023-09-21T08:20:00.572Z,2.20
2023-09-21T08:22:30.429Z,2.10
2023-09-21T08:24:57.409Z,1.88
2023-09-21T08:27:24.290Z,1.88
2023-09-21T08:29:51.354Z,1.80
2023-09-21T08:32:18.611Z,2.17
2023-09-21T08:34:45.415Z,2.17
2023-09-21T08:37:12.459Z,1.95
2023-09-21T08:39:39.536Z,1.90
2023-09-21T08:42:06.555Z,2.75
2023-09-21T08:44:34.045Z,1.95
2023-09-21T08:47:01.858Z,1.95
2023-09-21T08:49:30.766Z,2.08
2023-09-21T08:52:01.814Z,2.08
2023-09-21T08:54:29.820Z,1.88
2023-09-21T08:56:57.231Z,2.17
2023-09-21T08:59:25.939Z,2.20
2023-09-21T09:01:53.201Z,2.20
2023-09-21T09:04:22.003Z,2.30
2023-09-21T09:06:48.926Z,2.25
2023-09-21T09:09:16.995Z,1.83
2023-09-21T09:11:46.950Z,2.05
2023-09-21T09:14:16.155Z,2.17
2023-09-21T09:16:42.984Z,2.10
2023-09-21T09:19:10.811Z,2.17
2023-09-21T09:21:38.145Z,2.17
2023-09-21T09:24:05.965Z,1.80
2023-09-21T09:26:33.569Z,1.80
2023-09-21T09:29:08.307Z,2.08
2023-09-21T09:31:43.110Z,2.03
2023-09-21T09:34:14.840Z,1.98
2023-09-21T09:36:42.625Z,1.90
2023-09-21T09:39:09.930Z,1.90
2023-09-21T09:41:36.881Z,1.83
2023-09-21T09:44:07.749Z,2.20
2023-09-21T09:46:36.281Z,2.22
2023-09-21T09:49:04.009Z,1.90
2023-09-21T09:51:39.796Z,1.70
2023-09-21T09:54:10.243Z,1.73
2023-09-21T09:56:44.321Z,1.88
2023-09-21T09:59:12.794Z,2.20
2023-09-21T10:01:42.600Z,2.00
2023-09-21T10:04:10.061Z,1.95
2023-09-21T10:06:37.966Z,2.20
2023-09-21T10:09:14.840Z,1.95
2023-09-21T10:11:47.182Z,2.00
2023-09-21T10:14:14.705Z,1.77
2023-09-21T10:16:50.269Z,1.75
2023-09-21T10:19:20.706Z,1.92
2023-09-21T10:21:48.689Z,2.10
2023-09-21T10:24:20.268Z,1.95
2023-09-21T10:26:51.277Z,1.92
2023-09-21T10:29:22.335Z,2.10
2023-09-21T10:32:01.561Z,2.15
2023-09-21T10:34:29.919Z,2.05
2023-09-21T10:37:07.885Z,2.13
2023-09-21T10:39:34.771Z,1.83
2023-09-21T10:42:04.732Z,2.45
2023-09-21T10:45:08.516Z,1.63
2023-09-21T10:47:39.747Z,1.80
2023-09-21T10:50:14.909Z,2.40
2023-09-21T10:52:46.892Z,2.20
2023-09-21T10:55:17.716Z,2.03
2023-09-21T10:57:46.486Z,2.28
2023-09-21T11:00:18.969Z,2.03
2023-09-21T11:02:48.061Z,2.33
2023-09-21T11:07:46.032Z,2.40
2023-09-21T11:10:13.329Z,2.40
2023-09-21T11:12:41.367Z,2.78
2023-09-21T11:15:10.493Z,2.95
2023-09-21T11:17:37.624Z,2.80
2023-09-21T11:20:05.901Z,2.28
2023-09-21T11:22:34.301Z,2.58
2023-09-21T11:25:01.501Z,2.53
2023-09-21T11:27:29.574Z,2.53
2023-09-21T11:29:56.635Z,2.50
2023-09-21T11:32:24.181Z,2.40
2023-09-21T11:34:59.466Z,2.42
2023-09-21T11:37:29.786Z,2.53
2023-09-21T11:39:57.089Z,2.03
2023-09-21T11:42:25.707Z,1.80
2023-09-21T11:44:52.988Z,1.90
2023-09-21T11:47:23.543Z,2.17
2023-09-21T11:49:54.904Z,2.45
2023-09-21T11:52:24.503Z,2.30
2023-09-21T11:54:53.969Z,2.30
2023-09-21T11:57:20.957Z,2.10
2023-09-21T11:59:47.808Z,2.35
2023-09-21T12:02:15.577Z,2.20
2023-09-21T12:04:45.272Z,1.95
2023-09-21T12:07:12.708Z,2.45
2023-09-21T12:09:42.221Z,2.47
2023-09-21T12:12:14.658Z,2.40
2023-09-21T12:14:46.173Z,2.30
2023-09-21T12:17:13.729Z,2.20
2023-09-21T12:19:40.630Z,2.40
2023-09-21T12:22:07.838Z,2.05
2023-09-21T12:24:35.797Z,1.98
2023-09-21T12:27:08.534Z,2.33
2023-09-21T12:29:35.886Z,2.20
2023-09-21T12:32:05.889Z,2.08
2023-09-21T12:34:37.807Z,2.22
2023-09-21T12:37:06.405Z,2.10
2023-09-21T12:39:33.227Z,2.90
2023-09-21T12:42:00.473Z,2.30
2023-09-21T12:44:28.431Z,2.13
2023-09-21T12:46:58.966Z,2.47
2023-09-21T12:49:25.727Z,2.00
2023-09-21T12:51:52.430Z,2.38
2023-09-21T12:54:20.594Z,2.00
2023-09-21T12:56:47.925Z,2.40
2023-09-21T12:59:15.578Z,2.40
2023-09-21T13:01:42.613Z,2.17
2023-09-21T13:04:09.443Z,1.60
2023-09-21T13:06:42.304Z,1.90
2023-09-21T13:09:12.116Z,2.38
2023-09-21T13:11:38.938Z,2.85
2023-09-21T13:14:05.632Z,2.10
2023-09-21T13:16:34.021Z,2.08
2023-09-21T13:19:00.922Z,2.38
2023-09-21T13:21:28.209Z,2.10
2023-09-21T13:23:57.354Z,1.95
2023-09-21T13:28:50.921Z,2.58
2023-09-21T13:31:20.661Z,2.30
2023-09-21T13:33:48.117Z,2.10
2023-09-21T13:36:14.909Z,2.05
2023-09-21T13:38:41.744Z,1.98
2023-09-21T13:41:09.367Z,2.33
2023-09-21T13:43:36.098Z,2.33
2023-09-21T13:46:02.820Z,2.28
2023-09-21T13:48:29.671Z,1.80
2023-09-21T13:50:56.477Z,2.05
2023-09-21T13:53:23.817Z,2.10
2023-09-21T13:55:50.628Z,1.80
2023-09-21T13:58:17.350Z,1.52
2023-09-21T14:00:44.170Z,1.83
2023-09-21T14:03:12.482Z,1.92
2023-09-21T14:05:40.300Z,1.70
2023-09-21T14:08:10.358Z,1.80
2023-09-21T14:10:38.407Z,2.08
2023-09-21T14:13:05.144Z,2.13
2023-09-21T14:15:32.393Z,1.90
2023-09-21T14:17:59.240Z,2.20
2023-09-21T14:20:26.004Z,2.00
2023-09-21T14:22:52.846Z,2.00
2023-09-21T14:25:19.654Z,1.77
2023-09-21T14:27:46.386Z,2.10
2023-09-21T14:30:13.706Z,2.20
2023-09-21T14:32:43.173Z,1.92
2023-09-21T14:37:38.252Z,1.98
2023-09-21T14:40:06.974Z,1.92
2023-09-21T14:42:35.079Z,1.77
2023-09-21T14:45:04.099Z,2.13
2023-09-21T14:47:31.970Z,1.80
2023-09-21T14:49:59.134Z,2.00
2023-09-21T14:52:27.090Z,1.75
2023-09-21T14:54:54.388Z,2.13
2023-09-21T14:57:21.445Z,1.83
2023-09-21T14:59:48.142Z,2.20
2023-09-21T15:02:15.604Z,2.65
2023-09-21T15:04:44.251Z,2.10
2023-09-21T15:07:13.609Z,2.30
2023-09-21T15:09:40.446Z,2.50
2023-09-21T15:12:07.855Z,2.20
2023-09-21T15:14:35.150Z,1.10
2023-09-21T15:17:02.487Z,1.33
2023-09-21T15:19:30.226Z,1.25
2023-09-21T15:21:57.416Z,1.30
2023-09-21T15:24:27.090Z,1.45
2023-09-21T15:26:56.892Z,1.70
2023-09-21T15:29:27.190Z,1.50
2023-09-21T15:31:54.400Z,2.03
2023-09-21T15:34:23.922Z,1.77
2023-09-21T15:39:19.171Z,2.13
2023-09-21T15:41:46.356Z,2.20
2023-09-21T15:44:14.130Z,1.90
2023-09-21T15:46:41.581Z,1.48
2023-09-21T15:49:09.365Z,2.17
2023-09-21T15:51:37.822Z,2.00
2023-09-21T15:54:08.704Z,1.92
2023-09-21T15:56:35.889Z,2.60
2023-09-21T15:59:03.120Z,2.22
2023-09-21T16:01:30.385Z,2.05
2023-09-21T16:03:59.614Z,2.00
2023-09-21T16:06:26.935Z,1.77
2023-09-21T16:08:54.136Z,1.63
2023-09-21T16:11:21.286Z,1.67
2023-09-21T16:13:49.227Z,1.50
2023-09-21T16:16:18.013Z,1.48
2023-09-21T16:18:45.727Z,1.63
2023-09-21T16:21:15.695Z,2.10
2023-09-21T16:23:42.816Z,1.50
2023-09-21T16:26:09.945Z,1.85
2023-09-21T16:28:37.744Z,2.05
2023-09-21T16:31:04.998Z,1.75
2023-09-21T16:33:32.727Z,1.75
2023-09-21T16:36:02.832Z,1.85
2023-09-21T16:38:30.588Z,1.73
2023-09-21T16:41:01.118Z,2.00
2023-09-21T16:43:28.380Z,1.80
2023-09-21T16:45:56.440Z,1.80
2023-09-21T16:48:23.956Z,1.83
2023-09-21T16:50:51.140Z,1.95
2023-09-21T16:53:18.227Z,2.13
2023-09-21T16:55:45.387Z,1.80
2023-09-21T16:58:13.062Z,2.30
2023-09-21T17:00:40.373Z,1.90
2023-09-21T17:03:07.738Z,1.83
2023-09-21T17:05:34.934Z,1.90
2023-09-21T17:08:02.496Z,2.22
2023-09-21T17:10:30.854Z,3.28
2023-09-21T17:12:58.512Z,2.45
2023-09-21T17:15:26.672Z,3.20
2023-09-21T17:17:53.993Z,3.15
2023-09-21T17:20:21.532Z,2.47
2023-09-21T17:22:50.935Z,3.20
2023-09-21T17:25:18.477Z,2.70
2023-09-21T17:27:45.737Z,2.58
2023-09-21T17:30:13.666Z,3.10
2023-09-21T17:32:40.999Z,2.95
2023-09-21T17:35:08.399Z,2.13
2023-09-21T17:37:36.140Z,1.60
2023-09-21T17:40:05.115Z,1.40
2023-09-21T17:42:36.820Z,1.48
2023-09-21T17:45:04.646Z,1.50
2023-09-21T17:47:31.463Z,1.15
2023-09-21T17:49:58.201Z,1.00
2023-09-21T17:52:24.925Z,1.25
2023-09-21T17:54:51.613Z,1.00
2023-09-21T17:57:18.313Z,1.10
2023-09-21T17:59:45.496Z,1.00
2023-09-21T18:02:12.476Z,1.08
2023-09-21T18:04:39.810Z,1.50
2023-09-21T18:07:06.963Z,1.27
2023-09-21T18:09:33.861Z,0.95
2023-09-21T18:12:00.745Z,1.23
2023-09-21T18:14:27.441Z,1.10
2023-09-21T18:16:54.123Z,1.50
2023-09-21T18:19:21.005Z,1.20
2023-09-21T18:21:47.985Z,1.20
2023-09-21T18:24:14.821Z,1.27
2023-09-21T18:26:41.543Z,1.35
2023-09-21T18:29:11.618Z,1.45
2023-09-21T18:31:42.269Z,1.20
2023-09-21T18:34:09.070Z,1.50
2023-09-21T18:36:35.972Z,1.42
2023-09-21T18:39:02.821Z,1.40
2023-09-21T18:41:29.727Z,1.50
2023-09-21T18:43:56.704Z,1.50
2023-09-21T18:46:23.641Z,1.50
2023-09-21T18:48:50.976Z,1.60
2023-09-21T18:51:17.735Z,1.55
2023-09-21T18:53:44.627Z,1.58
2023-09-21T18:56:12.654Z,1.50
2023-09-21T18:58:39.354Z,1.65
2023-09-21T19:01:12.523Z,1.70
2023-09-21T19:03:40.458Z,1.35
2023-09-21T19:06:07.614Z,1.60
2023-09-21T19:08:34.464Z,1.85
2023-09-21T19:11:01.785Z,1.77
2023-09-21T19:13:28.601Z,2.03
2023-09-21T19:15:55.603Z,1.98
2023-09-21T19:18:22.353Z,2.30
2023-09-21T19:20:49.263Z,2.90
2023-09-21T19:23:16.676Z,2.78
2023-09-21T19:25:43.343Z,2.72
2023-09-21T19:28:10.012Z,2.30
2023-09-21T19:30:36.944Z,2.00
2023-09-21T19:33:03.881Z,1.48
2023-09-21T19:35:30.652Z,1.48
2023-09-21T19:37:57.560Z,1.98
2023-09-21T19:40:24.261Z,1.55
2023-09-21T19:42:51.602Z,1.60
2023-09-21T19:45:18.461Z,1.52
2023-09-21T19:47:45.261Z,1.67
2023-09-21T19:50:13.938Z,2.25
2023-09-21T19:52:41.338Z,1.55
2023-09-21T19:55:08.256Z,2.65
2023-09-21T19:57:35.037Z,1.90
2023-09-21T20:00:01.859Z,1.70
2023-09-21T20:02:29.295Z,1.83
2023-09-21T20:04:56.105Z,2.00
2023-09-21T20:07:22.943Z,1.73
2023-09-21T20:09:49.700Z,1.70
2023-09-21T20:12:20.302Z,1.60
2023-09-21T20:14:47.407Z,1.70
2023-09-21T20:17:14.082Z,1.88
2023-09-21T20:19:41.284Z,1.50
2023-09-21T20:22:09.095Z,1.30
2023-09-21T20:24:36.202Z,1.52
2023-09-21T20:27:03.087Z,1.88
2023-09-21T20:29:30.046Z,1.30
2023-09-21T20:31:57.224Z,1.52
2023-09-21T20:34:24.570Z,1.50
2023-09-21T20:36:51.411Z,1.67
2023-09-21T20:39:21.368Z,1.33
2023-09-21T20:41:48.976Z,1.83
2023-09-21T20:44:15.710Z,1.58
2023-09-21T20:46:43.145Z,1.80
2023-09-21T20:49:09.909Z,1.70
2023-09-21T20:51:36.679Z,1.70
2023-09-21T20:54:03.562Z,1.75
2023-09-21T20:56:30.234Z,1.60
2023-09-21T20:58:56.966Z,1.58
2023-09-21T21:01:23.728Z,1.90
2023-09-21T21:03:50.702Z,1.80
2023-09-21T21:06:18.379Z,1.65
2023-09-21T21:08:45.375Z,1.35
2023-09-21T21:11:13.063Z,1.90
2023-09-21T21:13:40.177Z,1.70
2023-09-21T21:16:06.884Z,1.63
2023-09-21T21:18:33.618Z,1.75
2023-09-21T21:21:00.336Z,1.80
2023-09-21T21:23:27.844Z,1.50
2023-09-21T21:25:54.857Z,1.50
2023-09-21T21:28:23.499Z,1.48
2023-09-21T21:30:50.967Z,1.35
2023-09-21T21:33:17.814Z,2.05
2023-09-21T21:35:44.462Z,1.50
2023-09-21T21:38:11.420Z,1.50
2023-09-21T21:40:38.714Z,1.42
2023-09-21T21:43:05.536Z,1.45
2023-09-21T21:45:32.319Z,1.30
2023-09-21T21:47:59.050Z,1.33
2023-09-21T21:50:26.065Z,1.40
2023-09-21T21:52:53.104Z,1.15
2023-09-21T21:55:19.769Z,1.10
2023-09-21T21:57:49.531Z,1.25
2023-09-21T22:00:20.286Z,0.88
2023-09-21T22:02:47.142Z,1.25
2023-09-21T22:05:13.967Z,1.02
2023-09-21T22:07:40.722Z,0.90
2023-09-21T22:10:08.927Z,1.30
2023-09-21T22:12:35.920Z,1.20
2023-09-21T22:15:03.494Z,0.95
2023-09-21T22:17:34.210Z,0.70
2023-09-21T22:20:16.743Z,1.33
2023-09-21T22:22:47.279Z,1.15
2023-09-21T22:25:14.539Z,0.85
2023-09-21T22:27:41.313Z,0.70
2023-09-21T22:30:10.622Z,0.82
2023-09-21T22:32:37.888Z,0.88
2023-09-21T22:35:08.087Z,0.93
2023-09-21T22:37:35.663Z,1.00
2023-09-21T22:40:06.240Z,1.10
2023-09-21T22:42:46.318Z,0.80
2023-09-21T22:45:17.091Z,0.93
2023-09-21T22:47:44.986Z,0.93
2023-09-21T22:50:15.104Z,1.10
2023-09-21T22:52:48.273Z,1.30
2023-09-21T22:55:17.984Z,1.00
2023-09-21T22:57:45.258Z,0.93
2023-09-21T23:00:19.518Z,1.27
2023-09-21T23:02:47.276Z,0.88
2023-09-21T23:05:14.459Z,0.98
2023-09-21T23:07:42.495Z,0.80
2023-09-21T23:10:17.229Z,1.40
2023-09-21T23:12:45.364Z,0.90
2023-09-21T23:15:14.585Z,1.08
2023-09-21T23:17:42.556Z,1.08
2023-09-21T23:20:17.868Z,0.90
2023-09-21T23:22:48.901Z,1.30
2023-09-21T23:25:17.153Z,0.80
2023-09-21T23:27:43.948Z,0.98
2023-09-21T23:30:11.684Z,0.82
2023-09-21T23:32:38.412Z,0.90
2023-09-21T23:35:09.005Z,0.95
2023-09-21T23:37:38.536Z,1.42
2023-09-21T23:40:09.728Z,0.82
2023-09-21T23:42:39.377Z,0.80
2023-09-21T23:45:07.269Z,1.15
2023-09-21T23:47:37.213Z,0.90
2023-09-21T23:50:04.279Z,0.68
2023-09-21T23:52:31.004Z,0.82
2023-09-21T23:54:58.105Z,0.93
2023-09-21T23:57:24.871Z,0.90
2023-09-21T23:59:51.758Z,1.00
